createdAt,value
2023-02-17T00:01:31.965Z,11.75
2023-02-17T00:04:00.459Z,11.83
2023-02-17T00:06:29.903Z,7.68
2023-02-17T00:08:58.430Z,9.75
2023-02-17T00:11:25.532Z,7.32
2023-02-17T00:13:55.253Z,12.13
2023-02-17T00:16:26.899Z,8.05
2023-02-17T00:19:00.908Z,9.82
2023-02-17T00:21:30.307Z,9.73
2023-02-17T00:24:00.929Z,8.52
2023-02-17T00:26:30.116Z,8.27
2023-02-17T00:28:59.468Z,12.95
2023-02-17T00:31:26.888Z,15.60
2023-02-17T00:33:57.928Z,9.15
2023-02-17T00:36:28.859Z,9.52
2023-02-17T00:39:00.016Z,9.77
2023-02-17T00:41:29.294Z,9.98
2023-02-17T00:44:00.172Z,10.07
2023-02-17T00:46:28.736Z,12.02
2023-02-17T00:48:56.581Z,9.80
2023-02-17T00:51:24.773Z,10.35
2023-02-17T00:53:52.460Z,11.10
2023-02-17T00:56:19.684Z,9.98
2023-02-17T00:58:47.129Z,19.75
2023-02-17T01:01:15.458Z,17.75
2023-02-17T01:03:43.720Z,15.55
2023-02-17T01:06:21.545Z,13.18
2023-02-17T01:08:48.852Z,15.82
2023-02-17T01:11:21.102Z,16.83
2023-02-17T01:13:48.686Z,20.30
2023-02-17T01:16:21.893Z,17.60
2023-02-17T01:18:49.661Z,16.30
2023-02-17T01:21:24.817Z,18.10
2023-02-17T01:23:54.667Z,21.48
2023-02-17T01:26:24.596Z,20.00
2023-02-17T01:28:52.981Z,21.38
2023-02-17T01:31:21.984Z,20.15
2023-02-17T01:33:49.983Z,17.13
2023-02-17T01:36:19.244Z,16.70
2023-02-17T01:38:47.075Z,19.77
2023-02-17T01:41:17.403Z,15.48
2023-02-17T01:44:05.055Z,17.50
2023-02-17T01:46:34.394Z,17.50
2023-02-17T01:49:05.533Z,25.73
2023-02-17T01:51:37.723Z,23.80
2023-02-17T01:54:16.402Z,18.25
2023-02-17T01:56:47.969Z,21.67
2023-02-17T01:59:21.939Z,20.60
2023-02-17T02:01:55.703Z,19.85
2023-02-17T02:04:26.560Z,18.20
2023-02-17T02:06:54.250Z,22.33
2023-02-17T02:09:39.630Z,22.67
2023-02-17T02:12:25.242Z,19.63
2023-02-17T02:14:58.010Z,17.60
2023-02-17T02:19:58.864Z,17.67
2023-02-17T02:22:35.059Z,19.30
2023-02-17T02:25:20.955Z,23.83
2023-02-17T02:28:10.088Z,17.95
2023-02-17T02:30:38.096Z,22.25
2023-02-17T02:33:21.092Z,25.55
2023-02-17T02:35:59.580Z,22.95
2023-02-17T02:38:46.435Z,20.15
2023-02-17T02:41:21.015Z,22.13
2023-02-17T02:43:51.147Z,27.75
2023-02-17T02:46:19.592Z,25.95
2023-02-17T02:48:49.376Z,33.22
2023-02-17T02:51:26.029Z,28.42
2023-02-17T02:54:17.062Z,21.40
2023-02-17T02:57:12.939Z,24.45
2023-02-17T02:59:58.601Z,24.95
2023-02-17T03:02:46.067Z,22.20
2023-02-17T03:05:39.758Z,24.73
2023-02-17T03:08:12.923Z,26.55
2023-02-17T03:10:54.849Z,25.02
2023-02-17T03:13:23.375Z,25.80
2023-02-17T03:15:52.924Z,25.17
2023-02-17T03:18:20.610Z,26.08
2023-02-17T03:21:05.696Z,28.42
2023-02-17T03:23:33.717Z,29.95
2023-02-17T03:26:01.883Z,22.10
2023-02-17T03:28:31.136Z,27.58
2023-02-17T03:30:59.250Z,25.60
2023-02-17T03:33:27.817Z,25.92
2023-02-17T03:35:55.198Z,29.67
2023-02-17T03:38:23.424Z,22.85
2023-02-17T03:40:51.264Z,28.05
2023-02-17T03:43:20.614Z,24.70
2023-02-17T03:45:48.440Z,22.67
2023-02-17T03:48:16.180Z,25.55
2023-02-17T03:50:44.022Z,27.00
2023-02-17T03:53:12.828Z,29.30
2023-02-17T03:55:40.470Z,25.23
2023-02-17T03:58:09.256Z,27.67
2023-02-17T04:00:36.791Z,23.67
2023-02-17T04:03:04.083Z,27.27
2023-02-17T04:05:31.364Z,29.27
2023-02-17T04:07:58.695Z,26.13
2023-02-17T04:10:26.906Z,28.90
2023-02-17T04:12:56.080Z,29.10
2023-02-17T04:15:23.249Z,28.77
2023-02-17T04:17:51.122Z,32.55
2023-02-17T04:20:18.683Z,26.90
2023-02-17T04:22:47.516Z,35.83
2023-02-17T04:25:15.075Z,36.95
2023-02-17T04:27:42.821Z,31.15
2023-02-17T04:30:12.422Z,30.02
2023-02-17T04:32:41.774Z,29.48
2023-02-17T04:35:09.515Z,33.40
2023-02-17T04:37:38.162Z,29.67
2023-02-17T04:40:10.913Z,30.17
2023-02-17T04:42:41.644Z,30.35
2023-02-17T04:45:10.556Z,31.75
2023-02-17T04:47:38.639Z,28.30
2023-02-17T04:50:08.981Z,31.30
2023-02-17T04:52:37.127Z,36.80
2023-02-17T04:55:08.041Z,33.05
2023-02-17T04:57:36.375Z,28.70
2023-02-17T05:00:07.643Z,28.60
2023-02-17T05:02:36.034Z,31.35
2023-02-17T05:05:05.936Z,28.92
2023-02-17T05:07:33.770Z,30.42
2023-02-17T05:10:01.407Z,28.73
2023-02-17T05:12:31.517Z,29.92
2023-02-17T05:14:59.704Z,31.35
2023-02-17T05:17:27.473Z,34.42
2023-02-17T05:19:55.810Z,30.45
2023-02-17T05:22:23.364Z,32.67
2023-02-17T05:24:51.333Z,29.20
2023-02-17T05:27:19.847Z,36.13
2023-02-17T05:29:50.496Z,33.60
2023-02-17T05:32:22.624Z,31.85
2023-02-17T05:34:50.180Z,37.72
2023-02-17T05:37:17.501Z,34.05
2023-02-17T05:39:45.031Z,33.35
2023-02-17T05:42:13.637Z,33.80
2023-02-17T05:44:40.939Z,31.60
2023-02-17T05:47:09.848Z,39.03
2023-02-17T05:49:37.547Z,31.08
2023-02-17T05:52:05.278Z,30.98
2023-02-17T05:54:32.992Z,30.20
2023-02-17T05:57:00.972Z,30.80
2023-02-17T05:59:28.755Z,36.50
2023-02-17T06:01:58.200Z,24.70
2023-02-17T06:04:25.738Z,33.53
2023-02-17T06:06:54.161Z,34.22
2023-02-17T06:09:22.560Z,30.65
2023-02-17T06:11:50.844Z,33.15
2023-02-17T06:14:20.567Z,30.05
2023-02-17T06:16:48.305Z,34.60
2023-02-17T06:19:16.227Z,34.47
2023-02-17T06:21:43.916Z,34.95
2023-02-17T06:24:12.505Z,29.00
2023-02-17T06:26:40.024Z,33.22
2023-02-17T06:29:07.693Z,31.20
2023-02-17T06:31:35.589Z,34.03
2023-02-17T06:34:06.188Z,35.25
2023-02-17T06:36:34.682Z,37.90
2023-02-17T06:39:03.553Z,38.88
2023-02-17T06:41:32.508Z,36.55
2023-02-17T06:44:00.846Z,35.40
2023-02-17T06:46:29.056Z,32.58
2023-02-17T06:48:58.115Z,33.58
2023-02-17T06:51:26.362Z,34.17
2023-02-17T06:53:55.768Z,30.02
2023-02-17T06:56:23.758Z,35.13
2023-02-17T06:58:52.017Z,38.60
2023-02-17T07:01:24.944Z,37.25
2023-02-17T07:03:57.869Z,30.27
2023-02-17T07:06:27.230Z,31.40
2023-02-17T07:08:55.751Z,32.65
2023-02-17T07:11:23.904Z,36.03
2023-02-17T07:13:51.909Z,36.40
2023-02-17T07:16:19.792Z,35.25
2023-02-17T07:18:47.650Z,32.00
2023-02-17T07:21:16.206Z,35.47
2023-02-17T07:23:44.296Z,38.00
2023-02-17T07:26:12.819Z,36.22
2023-02-17T07:28:42.438Z,32.30
2023-02-17T07:31:12.707Z,33.25
2023-02-17T07:33:41.603Z,25.83
2023-02-17T07:36:14.990Z,34.28
2023-02-17T07:38:44.310Z,34.80
2023-02-17T07:41:17.755Z,32.95
2023-02-17T07:43:47.455Z,41.40
2023-02-17T07:46:18.412Z,33.50
2023-02-17T07:48:46.868Z,35.60
2023-02-17T07:51:21.922Z,34.60
2023-02-17T07:53:51.900Z,36.40
2023-02-17T07:56:22.538Z,37.10
2023-02-17T07:58:55.057Z,35.10
2023-02-17T08:03:55.711Z,26.90
2023-02-17T08:06:29.261Z,32.70
2023-02-17T08:09:16.886Z,30.88
2023-02-17T08:12:04.927Z,34.38
2023-02-17T08:14:36.076Z,32.05
2023-02-17T08:17:04.905Z,31.02
2023-02-17T08:19:46.919Z,36.30
2023-02-17T08:22:18.269Z,33.35
2023-02-17T08:24:47.054Z,31.65
2023-02-17T08:27:17.629Z,31.10
2023-02-17T08:29:46.994Z,26.63
2023-02-17T08:32:16.242Z,29.40
2023-02-17T08:34:44.376Z,33.08
2023-02-17T08:37:12.670Z,32.45
2023-02-17T08:39:41.781Z,30.95
2023-02-17T08:42:12.009Z,32.72
2023-02-17T08:44:43.064Z,34.53
2023-02-17T08:47:12.014Z,30.27
2023-02-17T08:49:41.889Z,40.15
2023-02-17T08:52:12.471Z,27.73
2023-02-17T08:54:40.646Z,31.65
2023-02-17T08:57:09.341Z,40.05
2023-02-17T08:59:39.020Z,35.53
2023-02-17T09:02:06.796Z,42.78
2023-02-17T09:04:34.853Z,33.40
2023-02-17T09:07:04.966Z,33.10
2023-02-17T09:09:35.831Z,36.03
2023-02-17T09:12:05.038Z,33.47
2023-02-17T09:14:33.640Z,31.73
2023-02-17T09:17:02.924Z,33.25
2023-02-17T09:19:30.524Z,32.78
2023-02-17T09:21:58.864Z,34.90
2023-02-17T09:24:26.947Z,37.58
2023-02-17T09:26:54.373Z,32.40
2023-02-17T09:29:23.482Z,36.53
2023-02-17T09:31:51.827Z,32.17
2023-02-17T09:34:19.992Z,35.17
2023-02-17T09:36:48.014Z,36.05
2023-02-17T09:39:17.226Z,33.65
2023-02-17T09:41:50.291Z,27.88
2023-02-17T09:44:32.712Z,31.23
2023-02-17T09:47:11.804Z,30.70
2023-02-17T09:49:45.239Z,32.78
2023-02-17T09:52:15.743Z,36.05
2023-02-17T09:54:58.441Z,32.47
2023-02-17T09:57:31.789Z,35.40
2023-02-17T10:00:16.077Z,32.38
2023-02-17T10:03:18.185Z,35.88
2023-02-17T10:06:14.267Z,29.30
2023-02-17T10:09:23.767Z,35.85
2023-02-17T10:12:11.680Z,32.85
2023-02-17T10:14:58.133Z,35.60
2023-02-17T10:17:38.291Z,31.50
2023-02-17T10:20:10.396Z,34.97
2023-02-17T10:22:39.552Z,36.45
2023-02-17T10:25:26.653Z,35.25
2023-02-17T10:28:11.082Z,34.38
2023-02-17T10:31:02.656Z,32.90
2023-02-17T10:33:39.538Z,37.33
2023-02-17T10:36:31.391Z,32.45
2023-02-17T10:39:06.184Z,32.15
2023-02-17T10:41:37.959Z,36.28
2023-02-17T10:44:18.173Z,35.35
2023-02-17T10:46:48.984Z,32.75
2023-02-17T10:49:29.568Z,33.67
2023-02-17T10:52:22.522Z,32.28
2023-02-17T10:55:01.105Z,34.17
2023-02-17T10:57:39.036Z,37.50
2023-02-17T11:00:10.218Z,28.23
2023-02-17T11:02:44.690Z,27.63
2023-02-17T11:05:28.301Z,32.72
2023-02-17T11:08:26.168Z,33.40
2023-02-17T11:11:17.012Z,36.17
2023-02-17T11:14:03.942Z,27.80
2023-02-17T11:16:38.646Z,33.38
2023-02-17T11:19:19.062Z,33.90
2023-02-17T11:21:48.512Z,29.88
2023-02-17T11:24:18.081Z,28.67
2023-02-17T11:26:58.081Z,28.55
2023-02-17T11:29:26.341Z,25.42
2023-02-17T11:32:15.740Z,31.63
2023-02-17T11:34:45.237Z,27.98
2023-02-17T11:37:12.805Z,31.83
2023-02-17T11:39:49.600Z,25.63
2023-02-17T11:42:38.313Z,30.92
2023-02-17T11:45:22.958Z,30.35
2023-02-17T11:48:17.198Z,27.40
2023-02-17T11:51:00.617Z,24.92
2023-02-17T11:53:52.511Z,29.65
2023-02-17T11:56:44.136Z,26.98
2023-02-17T11:59:24.043Z,28.77
2023-02-17T12:02:14.449Z,27.27
2023-02-17T12:05:04.248Z,30.90
2023-02-17T12:07:47.565Z,26.77
2023-02-17T12:10:14.969Z,31.63
2023-02-17T12:12:57.380Z,31.35
2023-02-17T12:15:33.745Z,24.92
2023-02-17T12:18:12.004Z,25.10
2023-02-17T12:21:08.541Z,27.05
2023-02-17T12:23:42.192Z,23.05
2023-02-17T12:26:29.872Z,23.38
2023-02-17T12:29:06.869Z,26.05
2023-02-17T12:31:55.167Z,29.20
2023-02-17T12:34:37.471Z,27.25
2023-02-17T12:37:11.767Z,23.67
2023-02-17T12:39:46.813Z,24.63
2023-02-17T12:42:24.494Z,22.70
2023-02-17T12:44:57.824Z,22.55
2023-02-17T12:47:44.606Z,22.08
2023-02-17T12:50:21.782Z,27.58
2023-02-17T12:52:56.008Z,24.50
2023-02-17T12:55:30.972Z,22.67
2023-02-17T12:58:13.015Z,24.10
2023-02-17T13:00:53.016Z,25.10
2023-02-17T13:03:23.160Z,22.20
2023-02-17T13:06:07.313Z,23.98
2023-02-17T13:09:04.554Z,23.52
2023-02-17T13:11:35.870Z,20.45
2023-02-17T13:14:45.522Z,26.92
2023-02-17T13:17:34.654Z,23.58
2023-02-17T13:20:14.933Z,25.60
2023-02-17T13:22:46.348Z,21.05
2023-02-17T13:25:39.119Z,26.85
2023-02-17T13:28:35.735Z,23.27
2023-02-17T13:31:20.891Z,20.50
2023-02-17T13:33:59.327Z,20.23
2023-02-17T13:36:30.653Z,24.63
2023-02-17T13:39:03.974Z,24.33
2023-02-17T13:41:50.749Z,23.23
2023-02-17T13:44:33.834Z,23.02
2023-02-17T13:47:07.547Z,27.25
2023-02-17T13:49:37.465Z,24.45
2023-02-17T13:52:23.236Z,24.00
2023-02-17T13:55:06.291Z,22.95
2023-02-17T13:57:40.461Z,24.63
2023-02-17T14:00:24.160Z,25.92
2023-02-17T14:02:58.377Z,24.77
2023-02-17T14:05:38.040Z,24.83
2023-02-17T14:08:38.465Z,26.42
2023-02-17T14:11:09.549Z,24.40
2023-02-17T14:13:40.417Z,22.98
2023-02-17T14:16:09.638Z,25.45
2023-02-17T14:18:42.538Z,27.02
2023-02-17T14:23:45.486Z,21.55
2023-02-17T14:26:22.738Z,21.23
2023-02-17T14:28:59.198Z,23.73
2023-02-17T14:31:29.542Z,22.67
2023-02-17T14:34:02.290Z,19.27
2023-02-17T14:36:42.234Z,21.05
2023-02-17T14:39:15.776Z,25.00
2023-02-17T14:41:43.979Z,23.75
2023-02-17T14:44:11.514Z,24.23
2023-02-17T14:46:40.178Z,22.27
2023-02-17T14:49:08.250Z,25.52
2023-02-17T14:51:38.828Z,21.42
2023-02-17T14:54:17.843Z,20.30
2023-02-17T14:57:06.373Z,21.00
2023-02-17T14:59:34.933Z,20.00
2023-02-17T15:02:02.873Z,20.98
2023-02-17T15:04:30.327Z,24.40
2023-02-17T15:06:58.094Z,26.55
2023-02-17T15:09:31.730Z,26.20
2023-02-17T15:11:59.930Z,23.40
2023-02-17T15:14:27.928Z,23.17
2023-02-17T15:16:55.496Z,31.23
2023-02-17T15:19:25.436Z,24.52
2023-02-17T15:21:54.426Z,29.83
2023-02-17T15:24:30.613Z,28.25
2023-02-17T15:27:00.472Z,36.13
2023-02-17T15:29:28.562Z,36.35
2023-02-17T15:31:58.347Z,49.13
2023-02-17T15:34:33.415Z,62.03
2023-02-17T15:37:01.514Z,58.70
2023-02-17T15:39:29.382Z,55.80
2023-02-17T15:42:03.693Z,50.10
2023-02-17T15:44:41.023Z,49.47
2023-02-17T15:47:15.005Z,53.42
2023-02-17T15:49:42.161Z,60.53
2023-02-17T15:52:14.089Z,48.78
2023-02-17T15:54:42.894Z,36.33
2023-02-17T15:57:22.995Z,39.58
2023-02-17T15:59:51.024Z,31.02
2023-02-17T16:02:24.187Z,34.25
2023-02-17T16:04:51.415Z,27.90
2023-02-17T16:07:18.893Z,36.10
2023-02-17T16:09:46.030Z,36.72
2023-02-17T16:12:19.176Z,28.73
2023-02-17T16:14:46.791Z,34.00
2023-02-17T16:17:16.996Z,30.25
2023-02-17T16:19:44.414Z,32.30
2023-02-17T16:22:11.775Z,30.92
2023-02-17T16:24:39.267Z,39.42
2023-02-17T16:27:11.082Z,35.53
2023-02-17T16:29:38.227Z,36.33
2023-02-17T16:32:05.328Z,34.30
2023-02-17T16:34:34.865Z,31.85
2023-02-17T16:37:04.732Z,35.35
2023-02-17T16:39:31.795Z,30.48
2023-02-17T16:41:58.952Z,32.50
2023-02-17T16:44:26.556Z,34.72
2023-02-17T16:46:55.843Z,34.88
2023-02-17T16:49:32.804Z,33.08
2023-02-17T16:52:02.106Z,31.95
2023-02-17T16:54:29.690Z,30.55
2023-02-17T16:56:58.641Z,35.13
2023-02-17T16:59:26.736Z,36.67
2023-02-17T17:01:54.218Z,44.08
2023-02-17T17:04:22.157Z,40.38
2023-02-17T17:06:51.692Z,44.67
2023-02-17T17:09:21.994Z,41.10
2023-02-17T17:11:50.165Z,33.53
2023-02-17T17:14:18.374Z,33.75
2023-02-17T17:16:58.435Z,34.75
2023-02-17T17:19:25.730Z,43.53
2023-02-17T17:21:53.114Z,45.35
2023-02-17T17:24:20.817Z,43.75
2023-02-17T17:26:50.319Z,41.72
2023-02-17T17:29:19.478Z,31.10
2023-02-17T17:31:47.104Z,28.65
2023-02-17T17:34:14.752Z,29.85
2023-02-17T17:36:44.691Z,30.20
2023-02-17T17:39:16.541Z,34.65
2023-02-17T17:41:44.468Z,30.77
2023-02-17T17:44:11.933Z,33.15
2023-02-17T17:46:39.779Z,37.65
2023-02-17T17:49:10.457Z,30.83
2023-02-17T17:51:39.133Z,31.80
2023-02-17T17:54:07.591Z,40.00
2023-02-17T17:56:39.469Z,28.15
2023-02-17T17:59:07.462Z,24.45
2023-02-17T18:01:34.852Z,37.80
2023-02-17T18:04:02.653Z,29.75
2023-02-17T18:06:35.931Z,34.22
2023-02-17T18:09:06.424Z,35.65
2023-02-17T18:11:35.004Z,28.27
2023-02-17T18:14:08.759Z,33.63
2023-02-17T18:16:37.757Z,33.35
2023-02-17T18:19:07.479Z,29.98
2023-02-17T18:21:35.884Z,30.90
2023-02-17T18:24:03.914Z,28.83
2023-02-17T18:26:31.468Z,33.72
2023-02-17T18:28:59.158Z,33.88
2023-02-17T18:31:29.237Z,32.67
2023-02-17T18:33:57.295Z,37.55
2023-02-17T18:36:27.584Z,30.13
2023-02-17T18:38:55.360Z,29.10
2023-02-17T18:41:25.283Z,27.98
2023-02-17T18:43:52.712Z,30.65
2023-02-17T18:46:20.634Z,28.35
2023-02-17T18:48:48.287Z,29.10
2023-02-17T18:51:19.491Z,34.42
2023-02-17T18:53:46.731Z,33.60
2023-02-17T18:56:19.834Z,25.05
2023-02-17T18:58:47.843Z,24.70
2023-02-17T19:01:21.500Z,28.63
2023-02-17T19:03:48.765Z,36.08
2023-02-17T19:06:18.275Z,40.15
2023-02-17T19:08:47.547Z,38.65
2023-02-17T19:11:16.543Z,30.67
2023-02-17T19:13:44.181Z,19.67
2023-02-17T19:16:15.555Z,37.60
2023-02-17T19:18:43.600Z,19.20
2023-02-17T19:21:11.389Z,24.58
2023-02-17T19:23:39.349Z,20.52
2023-02-17T19:26:09.690Z,19.10
2023-02-17T19:28:38.340Z,17.85
2023-02-17T19:31:07.925Z,21.35
2023-02-17T19:33:35.243Z,29.33
2023-02-17T19:36:10.278Z,32.58
2023-02-17T19:38:37.840Z,30.15
2023-02-17T19:41:07.773Z,18.25
2023-02-17T19:43:35.961Z,17.67
2023-02-17T19:46:05.046Z,24.13
2023-02-17T19:48:33.636Z,23.65
2023-02-17T19:51:06.765Z,11.45
2023-02-17T19:53:35.528Z,27.15
2023-02-17T19:56:12.714Z,22.10
2023-02-17T19:58:45.427Z,21.23
2023-02-17T20:01:21.818Z,17.00
2023-02-17T20:03:51.713Z,26.02
2023-02-17T20:06:25.656Z,26.98
2023-02-17T20:09:00.424Z,18.08
2023-02-17T20:11:30.579Z,19.75
2023-02-17T20:14:01.157Z,23.70
2023-02-17T20:16:30.213Z,19.17
2023-02-17T20:19:02.031Z,27.67
2023-02-17T20:21:32.867Z,21.73
2023-02-17T20:24:00.667Z,16.60
2023-02-17T20:26:34.654Z,20.95
2023-02-17T20:29:03.182Z,22.92
2023-02-17T20:31:31.690Z,28.88
2023-02-17T20:33:59.509Z,28.80
2023-02-17T20:36:31.580Z,26.05
2023-02-17T20:38:58.732Z,28.63
2023-02-17T20:41:26.663Z,14.20
2023-02-17T20:43:54.863Z,22.20
2023-02-17T20:46:25.155Z,27.63
2023-02-17T20:48:55.436Z,20.98
2023-02-17T20:51:24.565Z,17.95
2023-02-17T20:53:56.467Z,26.92
2023-02-17T20:56:24.886Z,30.73
2023-02-17T20:58:53.231Z,30.80
2023-02-17T21:01:20.642Z,25.00
2023-02-17T21:03:48.405Z,21.00
2023-02-17T21:06:30.650Z,32.63
2023-02-17T21:09:00.645Z,30.00
2023-02-17T21:11:29.160Z,29.05
2023-02-17T21:13:56.804Z,24.42
2023-02-17T21:16:27.792Z,19.10
2023-02-17T21:18:55.344Z,36.15
2023-02-17T21:21:23.845Z,21.08
2023-02-17T21:23:51.405Z,26.85
2023-02-17T21:26:19.139Z,25.60
2023-02-17T21:28:47.561Z,38.53
2023-02-17T21:31:15.996Z,18.92
2023-02-17T21:33:43.978Z,38.30
2023-02-17T21:36:14.062Z,32.63
2023-02-17T21:38:41.577Z,31.55
2023-02-17T21:41:11.466Z,30.65
2023-02-17T21:43:58.534Z,23.48
2023-02-17T21:46:31.137Z,38.47
2023-02-17T21:51:32.267Z,28.17
2023-02-17T21:54:00.496Z,27.55
2023-02-17T21:56:27.950Z,29.85
2023-02-17T21:58:56.242Z,29.70
2023-02-17T22:01:26.435Z,28.85
2023-02-17T22:03:55.071Z,28.85
2023-02-17T22:06:28.931Z,30.05
2023-02-17T22:09:01.559Z,24.80
2023-02-17T22:14:04.007Z,23.45
2023-02-17T22:16:34.054Z,24.77
2023-02-17T22:19:02.530Z,24.20
2023-02-17T22:21:30.182Z,21.00
2023-02-17T22:23:59.123Z,27.42
2023-02-17T22:26:28.761Z,26.33
2023-02-17T22:28:56.390Z,21.83
2023-02-17T22:31:26.888Z,26.40
2023-02-17T22:33:57.116Z,24.45
2023-02-17T22:36:25.468Z,18.58
2023-02-17T22:38:54.239Z,24.27
2023-02-17T22:41:24.296Z,20.95
2023-02-17T22:43:52.596Z,28.00
2023-02-17T22:46:21.950Z,22.52
2023-02-17T22:48:50.871Z,27.77
2023-02-17T22:51:21.672Z,25.98
2023-02-17T22:53:49.039Z,20.20
2023-02-17T22:56:17.198Z,12.80
2023-02-17T22:58:44.370Z,21.67
2023-02-17T23:01:17.359Z,22.98
2023-02-17T23:03:46.210Z,21.88
2023-02-17T23:06:25.639Z,23.23
2023-02-17T23:08:53.750Z,30.38
2023-02-17T23:11:45.637Z,37.35
2023-02-17T23:14:14.938Z,35.17
2023-02-17T23:16:43.475Z,22.45
2023-02-17T23:19:14.660Z,31.45
2023-02-17T23:21:52.090Z,29.58
2023-02-17T23:24:21.335Z,29.80
2023-02-17T23:26:49.831Z,31.85
2023-02-17T23:29:17.372Z,18.92
2023-02-17T23:31:46.516Z,29.85
2023-02-17T23:34:16.683Z,27.50
2023-02-17T23:36:45.297Z,29.35
2023-02-17T23:39:13.737Z,34.72
2023-02-17T23:41:41.837Z,26.58
2023-02-17T23:44:11.418Z,41.63
2023-02-17T23:46:39.637Z,25.35
2023-02-17T23:49:07.271Z,32.80
2023-02-17T23:51:34.613Z,34.10
2023-02-17T23:54:02.115Z,26.35
2023-02-17T23:56:32.090Z,38.65
2023-02-17T23:58:59.774Z,30.30
